Time,TemperatureF,DewpointF,PressureIn,WindDirection,WindDirectionDegrees,WindSpeedMPH,WindSpeedGustMPH,Humidity,HourlyPrecipIn,Conditions,Clouds,dailyrainin,SoftwareType,DateUTC
2013-12-09 00:00:00,79.0,74.0,30.13,North,-999,-999.0,-999.0,84,-99.99,,,-99.99,,2013-12-09 05:00:00,
2013-12-09 00:42:00,79.0,74.0,30.13,North,-999,-999.0,-999.0,84,-99.99,,,-99.99,,2013-12-09 05:42:00,
2013-12-09 00:52:00,79.0,74.0,30.13,North,-999,-999.0,-999.0,84,-99.99,,,-99.99,,2013-12-09 05:52:00,
2013-12-09 01:00:00,79.0,73.0,30.12,North,-999,-999.0,-999.0,82,-99.99,,,-99.99,,2013-12-09 06:00:00,
2013-12-09 01:42:00,79.0,73.0,30.12,North,-999,-999.0,-999.0,82,-99.99,,,-99.99,,2013-12-09 06:42:00,
2013-12-09 01:52:00,79.0,73.0,30.12,North,-999,-999.0,-999.0,82,-99.99,,,-99.99,,2013-12-09 06:52:00,
2013-12-09 02:00:00,79.0,72.0,30.12,North,-999,-999.0,-999.0,79,-99.99,,,-99.99,,2013-12-09 07:00:00,
2013-12-09 02:42:00,79.0,72.0,30.12,North,-999,-999.0,-999.0,79,-99.99,,,-99.99,,2013-12-09 07:42:00,
2013-12-09 02:52:00,79.0,72.0,30.12,North,-999,-999.0,-999.0,79,-99.99,,,-99.99,,2013-12-09 07:52:00,
2013-12-09 03:00:00,79.0,71.0,30.12,North,-999,-999.0,-999.0,78,-99.99,,,-99.99,,2013-12-09 08:00:00,
2013-12-09 03:21:00,79.0,71.0,30.12,North,-999,-999.0,-999.0,78,-99.99,,,-99.99,,2013-12-09 08:21:00,
2013-12-09 03:32:00,79.0,71.0,30.12,North,-999,-999.0,-999.0,78,-99.99,,,-99.99,,2013-12-09 08:32:00,
2013-12-09 03:42:00,79.0,71.0,30.12,North,-999,-999.0,-999.0,78,-99.99,,,-99.99,,2013-12-09 08:42:00,
2013-12-09 03:52:00,79.0,71.0,30.12,North,-999,-999.0,-999.0,78,-99.99,,,-99.99,,2013-12-09 08:52:00,
2013-12-09 04:00:00,79.0,72.0,30.13,North,-999,-999.0,-999.0,80,-99.99,,,-99.99,,2013-12-09 09:00:00,
2013-12-09 04:43:00,79.0,72.0,30.13,North,-999,-999.0,-999.0,80,-99.99,,,-99.99,,2013-12-09 09:43:00,
2013-12-09 04:53:00,79.0,72.0,30.13,North,-999,-999.0,-999.0,80,-99.99,,,-99.99,,2013-12-09 09:53:00,
2013-12-09 05:00:00,79.0,73.0,30.13,North,-999,-999.0,-999.0,82,-99.99,,,-99.99,,2013-12-09 10:00:00,
2013-12-09 05:43:00,79.0,73.0,30.13,North,-999,-999.0,-999.0,82,-99.99,,,-99.99,,2013-12-09 10:43:00,
2013-12-09 05:52:00,79.0,73.0,30.13,North,-999,-999.0,-999.0,82,-99.99,,,-99.99,,2013-12-09 10:52:00,
2013-12-09 06:00:00,78.0,74.0,30.13,North,-999,-999.0,-999.0,85,-99.99,,,-99.99,,2013-12-09 11:00:00,
2013-12-09 06:42:00,78.0,74.0,30.13,North,-999,-999.0,-999.0,85,-99.99,,,-99.99,,2013-12-09 11:42:00,
2013-12-09 06:52:00,78.0,74.0,30.13,North,-999,-999.0,-999.0,85,-99.99,,,-99.99,,2013-12-09 11:52:00,
2013-12-09 07:00:00,78.0,74.0,30.14,North,-999,-999.0,-999.0,88,-99.99,,,-99.99,,2013-12-09 12:00:00,
2013-12-09 07:42:00,78.0,74.0,30.14,North,-999,-999.0,-999.0,88,-99.99,,,-99.99,,2013-12-09 12:42:00,
2013-12-09 07:52:00,78.0,74.0,30.14,North,-999,-999.0,-999.0,88,-99.99,,,-99.99,,2013-12-09 12:52:00,
2013-12-09 08:00:00,79.0,72.0,30.16,North,-999,-999.0,-999.0,81,-99.99,,,-99.99,,2013-12-09 13:00:00,
2013-12-09 08:42:00,79.0,72.0,30.16,North,-999,-999.0,-999.0,81,-99.99,,,-99.99,,2013-12-09 13:42:00,
2013-12-09 08:52:00,79.0,72.0,30.16,North,-999,-999.0,-999.0,81,-99.99,,,-99.99,,2013-12-09 13:52:00,
2013-12-09 09:00:00,79.0,69.0,30.16,North,-999,-999.0,-999.0,72,-99.99,,,-99.99,,2013-12-09 14:00:00,
2013-12-09 09:21:00,79.0,69.0,30.16,North,-999,-999.0,-999.0,72,-99.99,,,-99.99,,2013-12-09 14:21:00,
2013-12-09 09:32:00,79.0,69.0,30.16,North,-999,-999.0,-999.0,72,-99.99,,,-99.99,,2013-12-09 14:32:00,
2013-12-09 09:42:00,79.0,69.0,30.16,North,-999,-999.0,-999.0,72,-99.99,,,-99.99,,2013-12-09 14:42:00,
2013-12-09 09:52:00,79.0,69.0,30.16,North,-999,-999.0,-999.0,72,-99.99,,,-99.99,,2013-12-09 14:52:00,
2013-12-09 11:00:00,80.0,66.0,30.17,North,-999,-999.0,-999.0,63,-99.99,,,-99.99,,2013-12-09 16:00:00,
2013-12-09 11:23:00,80.0,66.0,30.17,North,-999,-999.0,-999.0,63,-99.99,,,-99.99,,2013-12-09 16:23:00,
2013-12-09 11:33:00,80.0,66.0,30.17,North,-999,-999.0,-999.0,63,-99.99,,,-99.99,,2013-12-09 16:33:00,
2013-12-09 11:42:00,80.0,66.0,30.17,North,-999,-999.0,-999.0,63,-99.99,,,-99.99,,2013-12-09 16:42:00,
2013-12-09 11:52:00,80.0,66.0,30.17,North,-999,-999.0,-999.0,63,-99.99,,,-99.99,,2013-12-09 16:52:00,
2013-12-09 12:00:00,79.0,66.0,30.16,North,-999,-999.0,-999.0,64,-99.99,,,-99.99,,2013-12-09 17:00:00,
2013-12-09 12:42:00,79.0,66.0,30.16,North,-999,-999.0,-999.0,64,-99.99,,,-99.99,,2013-12-09 17:42:00,
2013-12-09 12:53:00,79.0,66.0,30.16,North,-999,-999.0,-999.0,64,-99.99,,,-99.99,,2013-12-09 17:53:00,
2013-12-09 13:00:00,80.0,65.0,30.12,North,-999,-999.0,-999.0,60,-99.99,,,-99.99,,2013-12-09 18:00:00,
2013-12-09 13:42:00,80.0,65.0,30.12,North,-999,-999.0,-999.0,60,-99.99,,,-99.99,,2013-12-09 18:42:00,
2013-12-09 13:52:00,80.0,65.0,30.12,North,-999,-999.0,-999.0,60,-99.99,,,-99.99,,2013-12-09 18:52:00,
2013-12-09 14:00:00,80.0,70.0,30.10,North,-999,-999.0,-999.0,73,-99.99,,,-99.99,,2013-12-09 19:00:00,
2013-12-09 14:42:00,80.0,70.0,30.10,North,-999,-999.0,-999.0,73,-99.99,,,-99.99,,2013-12-09 19:42:00,
2013-12-09 14:52:00,80.0,70.0,30.10,North,-999,-999.0,-999.0,73,-99.99,,,-99.99,,2013-12-09 19:52:00,
2013-12-09 15:00:00,80.0,71.0,30.09,North,-999,-999.0,-999.0,74,-99.99,,,-99.99,,2013-12-09 20:00:00,
2013-12-09 15:42:00,80.0,71.0,30.09,North,-999,-999.0,-999.0,74,-99.99,,,-99.99,,2013-12-09 20:42:00,
2013-12-09 15:52:00,80.0,71.0,30.09,North,-999,-999.0,-999.0,74,-99.99,,,-99.99,,2013-12-09 20:52:00,
2013-12-09 16:00:00,80.0,71.0,30.10,North,-999,-999.0,-999.0,75,-99.99,,,-99.99,,2013-12-09 21:00:00,
2013-12-09 16:43:00,80.0,71.0,30.10,North,-999,-999.0,-999.0,75,-99.99,,,-99.99,,2013-12-09 21:43:00,
2013-12-09 16:53:00,80.0,71.0,30.10,North,-999,-999.0,-999.0,75,-99.99,,,-99.99,,2013-12-09 21:53:00,
2013-12-09 17:00:00,80.0,69.0,30.11,North,-999,-999.0,-999.0,70,-99.99,,,-99.99,,2013-12-09 22:00:00,
2013-12-09 17:42:00,80.0,69.0,30.11,North,-999,-999.0,-999.0,70,-99.99,,,-99.99,,2013-12-09 22:42:00,
2013-12-09 17:53:00,80.0,69.0,30.11,North,-999,-999.0,-999.0,70,-99.99,,,-99.99,,2013-12-09 22:53:00,
2013-12-09 18:00:00,79.0,71.0,30.11,North,-999,-999.0,-999.0,76,-99.99,,,-99.99,,2013-12-09 23:00:00,
2013-12-09 18:42:00,79.0,71.0,30.11,North,-999,-999.0,-999.0,76,-99.99,,,-99.99,,2013-12-09 23:42:00,
2013-12-09 18:53:00,79.0,71.0,30.11,North,-999,-999.0,-999.0,76,-99.99,,,-99.99,,2013-12-09 23:53:00,
2013-12-09 19:00:00,79.0,70.0,30.12,North,-999,-999.0,-999.0,74,-99.99,,,-99.99,,2013-12-10 00:00:00,
2013-12-09 19:21:00,79.0,70.0,30.12,North,-999,-999.0,-999.0,74,-99.99,,,-99.99,,2013-12-10 00:21:00,
2013-12-09 19:32:00,79.0,70.0,30.12,North,-999,-999.0,-999.0,74,-99.99,,,-99.99,,2013-12-10 00:32:00,
2013-12-09 19:42:00,79.0,70.0,30.12,North,-999,-999.0,-999.0,74,-99.99,,,-99.99,,2013-12-10 00:42:00,
2013-12-09 19:52:00,79.0,70.0,30.12,North,-999,-999.0,-999.0,74,-99.99,,,-99.99,,2013-12-10 00:52:00,
2013-12-09 20:00:00,79.0,71.0,30.13,North,-999,-999.0,-999.0,77,-99.99,,,-99.99,,2013-12-10 01:00:00,
2013-12-09 20:42:00,79.0,71.0,30.13,North,-999,-999.0,-999.0,77,-99.99,,,-99.99,,2013-12-10 01:42:00,
2013-12-09 20:52:00,79.0,71.0,30.13,North,-999,-999.0,-999.0,77,-99.99,,,-99.99,,2013-12-10 01:52:00,
2013-12-09 21:00:00,79.0,72.0,30.13,North,-999,-999.0,-999.0,81,-99.99,,,-99.99,,2013-12-10 02:00:00,
2013-12-09 21:42:00,79.0,72.0,30.13,North,-999,-999.0,-999.0,81,-99.99,,,-99.99,,2013-12-10 02:42:00,
2013-12-09 21:52:00,79.0,72.0,30.13,North,-999,-999.0,-999.0,81,-99.99,,,-99.99,,2013-12-10 02:52:00,
2013-12-09 22:00:00,79.0,71.0,30.13,North,-999,-999.0,-999.0,77,-99.99,,,-99.99,,2013-12-10 03:00:00,
2013-12-09 22:21:00,79.0,71.0,30.13,North,-999,-999.0,-999.0,77,-99.99,,,-99.99,,2013-12-10 03:21:00,
2013-12-09 22:33:00,79.0,71.0,30.13,North,-999,-999.0,-999.0,77,-99.99,,,-99.99,,2013-12-10 03:33:00,
2013-12-09 22:43:00,79.0,71.0,30.13,North,-999,-999.0,-999.0,77,-99.99,,,-99.99,,2013-12-10 03:43:00,
2013-12-09 22:53:00,79.0,71.0,30.13,North,-999,-999.0,-999.0,77,-99.99,,,-99.99,,2013-12-10 03:53:00,
2013-12-09 23:00:00,79.0,73.0,30.12,North,-999,-999.0,-999.0,83,-99.99,,,-99.99,,2013-12-10 04:00:00,
2013-12-09 23:23:00,79.0,73.0,30.12,North,-999,-999.0,-999.0,83,-99.99,,,-99.99,,2013-12-10 04:23:00,
2013-12-09 23:33:00,79.0,73.0,30.12,North,-999,-999.0,-999.0,83,-99.99,,,-99.99,,2013-12-10 04:33:00,
2013-12-09 23:43:00,79.0,73.0,30.12,North,-999,-999.0,-999.0,83,-99.99,,,-99.99,,2013-12-10 04:43:00,
2013-12-09 23:52:00,79.0,73.0,30.12,North,-999,-999.0,-999.0,83,-99.99,,,-99.99,,2013-12-10 04:52:00,